Time;durP1;ratioP1;P1;durP2;ratioP2;P2;SDS_P1;SDS_P2;PMS_P1;PMS_P2;Temp;Humidity;BMP_temperature;BMP_pressure;BME280_temperature;BME280_humidity;BME280_pressure;Samples;Min_cycle;Max_cycle;Signal;HPM_P1;HPM_P2
2024/03/12 00:00:54;;;;;;;50.15;38.38;;;11.30;86.20;;;;;;4950528;28;112604;-52
2024/03/12 00:03:20;;;;;;;55.97;38.83;;;11.40;85.70;;;;;;4950561;28;112790;-52
2024/03/12 00:05:45;;;;;;;53.47;38.17;;;11.40;85.80;;;;;;4932306;28;116947;-52
2024/03/12 00:08:11;;;;;;;54.67;39.60;;;11.50;85.70;;;;;;4949362;28;113094;-54
2024/03/12 00:10:38;;;;;;;52.45;38.53;;;11.40;85.70;;;;;;4950511;28;112666;-52
2024/03/12 00:13:04;;;;;;;54.78;39.60;;;11.30;85.90;;;;;;4938221;28;112683;-52
2024/03/12 00:15:31;;;;;;;53.05;38.70;;;11.20;86.00;;;;;;4947974;28;113317;-52
2024/03/12 00:17:58;;;;;;;55.10;39.95;;;11.10;86.20;;;;;;4949343;28;113127;-52
2024/03/12 00:20:29;;;;;;;57.00;41.03;;;11.20;86.00;;;;;;4950198;28;112468;-52
2024/03/12 00:22:56;;;;;;;57.93;41.10;;;11.10;86.30;;;;;;4950052;28;112866;-52
2024/03/12 00:25:22;;;;;;;57.00;40.03;;;11.10;86.60;;;;;;4949078;28;113162;-51
2024/03/12 00:27:51;;;;;;;53.28;38.97;;;11.20;86.10;;;;;;4948739;28;113956;-52
2024/03/12 00:30:18;;;;;;;53.47;39.88;;;11.20;86.30;;;;;;4948504;28;112621;-51
2024/03/12 00:32:47;;;;;;;61.33;42.55;;;11.30;86.00;;;;;;4950335;28;112959;-52
2024/03/12 00:35:13;;;;;;;57.85;40.63;;;11.30;85.90;;;;;;4948898;28;114386;-52
2024/03/12 00:37:41;;;;;;;53.28;40.05;;;11.30;85.80;;;;;;4948612;28;114004;-52
2024/03/12 00:40:14;;;;;;;57.00;41.28;;;11.30;85.80;;;;;;4949772;28;112522;-51
2024/03/12 00:42:41;;;;;;;59.00;40.17;;;11.30;85.90;;;;;;4950160;28;112613;-51
2024/03/12 00:45:11;;;;;;;59.70;42.00;;;11.20;86.00;;;;;;4948762;28;114776;-51
2024/03/12 00:47:41;;;;;;;64.93;42.58;;;11.20;86.10;;;;;;4948585;28;113791;-51
2024/03/12 00:50:11;;;;;;;62.10;41.35;;;11.10;86.00;;;;;;4949767;28;112668;-51
2024/03/12 00:52:40;;;;;;;60.70;42.08;;;11.00;86.40;;;;;;4949564;28;112501;-52
2024/03/12 00:55:10;;;;;;;66.80;44.25;;;11.00;86.50;;;;;;4948227;28;113789;-51
2024/03/12 00:57:38;;;;;;;65.68;43.67;;;11.10;86.20;;;;;;4956213;28;113185;-51
2024/03/12 01:00:24;;;;;;;58.10;42.55;;;11.20;86.00;;;;;;4955760;28;112515;-53
2024/03/12 01:02:53;;;;;;;67.22;44.08;;;11.10;85.90;;;;;;4957935;28;112698;-53
2024/03/12 01:05:26;;;;;;;66.70;44.72;;;10.80;86.80;;;;;;4952760;28;114348;-51
2024/03/12 01:07:53;;;;;;;62.90;43.92;;;10.80;86.80;;;;;;4946351;28;114162;-51
2024/03/12 01:10:22;;;;;;;62.78;41.65;;;10.90;86.70;;;;;;4949628;28;112533;-52
2024/03/12 01:12:49;;;;;;;67.75;43.92;;;11.00;86.40;;;;;;4943332;28;113112;-53
2024/03/12 01:15:15;;;;;;;65.68;43.20;;;10.90;86.50;;;;;;4953904;28;113583;-51
2024/03/12 01:17:42;;;;;;;64.90;41.92;;;10.90;86.40;;;;;;4951662;28;112919;-53
2024/03/12 01:20:09;;;;;;;67.03;43.50;;;10.80;86.80;;;;;;4949250;28;113080;-53
2024/03/12 01:22:38;;;;;;;74.43;47.92;;;10.80;86.70;;;;;;4960481;28;113129;-52
2024/03/12 01:25:06;;;;;;;90.97;55.17;;;10.80;86.90;;;;;;4946948;28;114478;-51
2024/03/12 01:27:36;;;;;;;81.22;52.03;;;10.80;87.20;;;;;;4948204;28;112730;-51
2024/03/12 01:30:13;;;;;;;76.97;46.88;;;10.80;87.00;;;;;;4949133;28;112895;-52
2024/03/12 01:32:43;;;;;;;73.47;45.97;;;10.80;86.90;;;;;;4948827;28;113131;-52
2024/03/12 01:35:12;;;;;;;78.70;46.05;;;10.90;86.60;;;;;;4948022;28;115056;-54
2024/03/12 01:37:42;;;;;;;80.05;46.08;;;10.90;86.40;;;;;;4947391;28;113713;-52
2024/03/12 01:40:19;;;;;;;81.85;48.63;;;10.90;86.60;;;;;;4948121;28;112860;-52
2024/03/12 01:42:49;;;;;;;80.78;46.10;;;10.90;86.90;;;;;;4948770;28;112597;-54
2024/03/12 01:45:21;;;;;;;84.05;47.05;;;10.90;86.80;;;;;;4948162;28;113296;-52
2024/03/12 01:47:49;;;;;;;83.50;47.10;;;10.90;86.60;;;;;;4947792;28;113807;-52
2024/03/12 01:50:18;;;;;;;86.82;48.13;;;10.80;87.00;;;;;;4948814;28;112983;-54
2024/03/12 01:52:44;;;;;;;83.68;48.15;;;10.80;87.00;;;;;;4948641;28;112863;-51
2024/03/12 01:55:18;;;;;;;88.88;49.67;;;10.90;87.00;;;;;;4947671;28;114482;-52
2024/03/12 01:57:48;;;;;;;88.47;50.75;;;10.90;86.80;;;;;;4947725;28;112574;-57
2024/03/12 02:00:15;;;;;;;89.65;50.42;;;11.00;86.70;;;;;;4948846;28;112875;-52
2024/03/12 02:02:45;;;;;;;87.93;52.00;;;11.00;86.80;;;;;;4948748;28;113020;-51
2024/03/12 02:05:12;;;;;;;94.20;52.40;;;10.90;86.80;;;;;;4934756;28;114436;-52
2024/03/12 02:07:47;;;;;;;102.88;54.38;;;11.00;86.80;;;;;;4947394;28;113865;-53
2024/03/12 02:10:14;;;;;;;95.97;53.95;;;11.00;86.40;;;;;;4936013;28;113312;-53
2024/03/12 02:12:40;;;;;;;96.28;52.10;;;11.00;87.00;;;;;;4939569;28;113093;-53
2024/03/12 02:15:08;;;;;;;93.25;53.10;;;11.00;86.70;;;;;;4942944;28;113291;-53
2024/03/12 02:17:34;;;;;;;91.32;51.38;;;11.00;86.60;;;;;;4947787;28;113026;-54
2024/03/12 02:20:00;;;;;;;97.78;53.67;;;10.90;86.80;;;;;;4948497;28;112883;-51
2024/03/12 02:22:31;;;;;;;93.78;51.35;;;10.80;87.20;;;;;;4946872;28;112908;-53
2024/03/12 02:24:58;;;;;;;87.80;51.65;;;10.80;86.90;;;;;;4947508;28;113150;-52
2024/03/12 02:27:25;;;;;;;77.53;47.88;;;10.80;86.90;;;;;;4947278;28;113994;-51
2024/03/12 02:29:51;;;;;;;76.70;47.60;;;10.90;86.30;;;;;;4946950;28;113007;-51
2024/03/12 02:32:17;;;;;;;73.38;47.05;;;10.80;86.60;;;;;;4948322;28;112773;-51
2024/03/12 02:34:43;;;;;;;67.68;45.05;;;10.80;86.40;;;;;;4947266;28;113301;-54
2024/03/12 02:37:09;;;;;;;67.80;46.38;;;10.80;86.30;;;;;;4947358;28;113554;-52
2024/03/12 02:39:35;;;;;;;66.88;46.40;;;10.90;86.10;;;;;;4948137;28;112831;-51
2024/03/12 02:42:01;;;;;;;70.43;47.80;;;10.90;86.00;;;;;;4948235;28;112848;-51
2024/03/12 02:44:26;;;;;;;79.57;49.17;;;10.80;86.30;;;;;;4947952;28;113240;-52
2024/03/12 02:46:54;;;;;;;71.07;46.55;;;10.80;86.20;;;;;;4950792;28;112874;-53
2024/03/12 02:49:20;;;;;;;70.82;46.78;;;10.80;86.20;;;;;;4951405;28;112533;-50
2024/03/12 02:51:46;;;;;;;72.00;47.33;;;10.80;85.70;;;;;;4951794;28;112890;-51
2024/03/12 02:54:16;;;;;;;60.53;43.47;;;10.90;85.70;;;;;;4941865;28;113768;-52
2024/03/12 02:56:42;;;;;;;67.90;44.28;;;10.80;85.70;;;;;;4950248;28;113819;-53
2024/03/12 02:59:11;;;;;;;60.88;43.95;;;10.90;85.70;;;;;;4951481;28;113064;-52
2024/03/12 03:01:38;;;;;;;66.80;43.97;;;10.90;85.50;;;;;;4937542;28;112744;-51
2024/03/12 03:04:04;;;;;;;64.00;43.50;;;11.00;85.20;;;;;;4946793;28;113262;-51
2024/03/12 03:06:30;;;;;;;66.82;44.05;;;10.90;85.40;;;;;;4940836;28;113929;-52
2024/03/12 03:08:55;;;;;;;63.40;44.03;;;10.80;85.30;;;;;;4951214;28;112812;-51
2024/03/12 03:11:21;;;;;;;66.43;44.00;;;10.80;85.60;;;;;;4951307;28;112688;-52
2024/03/12 03:13:46;;;;;;;62.97;43.17;;;10.80;85.40;;;;;;4935959;28;113860;-51
2024/03/12 03:16:12;;;;;;;65.40;41.67;;;10.80;85.80;;;;;;4949633;28;112855;-54
2024/03/12 03:18:38;;;;;;;63.03;42.45;;;10.80;85.60;;;;;;4951256;28;112895;-51
2024/03/12 03:21:04;;;;;;;68.80;43.63;;;10.80;85.60;;;;;;4951017;28;112782;-52
2024/03/12 03:23:30;;;;;;;68.50;44.10;;;10.80;85.60;;;;;;4950259;28;113406;-51
2024/03/12 03:25:55;;;;;;;71.60;43.15;;;10.70;85.50;;;;;;4950093;28;112743;-52
2024/03/12 03:28:21;;;;;;;77.32;44.67;;;10.70;85.80;;;;;;4950910;28;114091;-51
2024/03/12 03:30:49;;;;;;;70.85;44.55;;;10.60;86.10;;;;;;4950939;28;113017;-51
2024/03/12 03:33:16;;;;;;;70.50;41.88;;;10.70;85.80;;;;;;4949852;28;113635;-52
2024/03/12 03:35:41;;;;;;;63.88;40.65;;;10.80;85.70;;;;;;4949875;28;113737;-54
2024/03/12 03:38:08;;;;;;;62.95;41.53;;;10.70;85.50;;;;;;4950261;28;112873;-52
2024/03/12 03:40:34;;;;;;;69.90;44.05;;;10.70;85.50;;;;;;4951098;28;112681;-51
2024/03/12 03:43:00;;;;;;;71.93;45.08;;;10.60;85.30;;;;;;4949660;28;114605;-53
2024/03/12 03:45:26;;;;;;;73.38;43.75;;;10.60;85.50;;;;;;4949875;28;113176;-51
2024/03/12 03:47:51;;;;;;;72.05;42.97;;;10.50;85.60;;;;;;4950676;28;112627;-51
2024/03/12 03:50:17;;;;;;;86.47;46.83;;;10.40;85.90;;;;;;4950341;28;112955;-51
2024/03/12 03:52:43;;;;;;;78.57;44.33;;;10.40;85.80;;;;;;4949763;28;113170;-52
2024/03/12 03:55:10;;;;;;;72.20;43.50;;;10.50;86.10;;;;;;4949623;28;113241;-52
2024/03/12 03:57:36;;;;;;;88.05;44.72;;;10.60;85.80;;;;;;4949881;28;112656;-51
2024/03/12 04:00:12;;;;;;;77.35;42.10;;;10.50;85.40;;;;;;4950496;28;113077;-51
2024/03/12 04:02:44;;;;;;;85.05;44.70;;;10.60;85.40;;;;;;4941684;28;113798;-51
2024/03/12 04:05:13;;;;;;;94.72;46.70;;;10.60;85.10;;;;;;4944777;28;112586;-52
2024/03/12 04:07:40;;;;;;;97.32;47.00;;;10.40;85.60;;;;;;4951257;28;112587;-53
2024/03/12 04:10:10;;;;;;;95.88;49.20;;;10.40;85.70;;;;;;4950538;28;113471;-51
2024/03/12 04:12:41;;;;;;;102.50;49.75;;;10.30;85.90;;;;;;4949159;28;113369;-52
2024/03/12 04:15:09;;;;;;;101.83;50.57;;;10.30;86.10;;;;;;4949474;28;113166;-52
2024/03/12 04:17:37;;;;;;;101.20;51.95;;;10.20;86.40;;;;;;4950157;28;112707;-52
2024/03/12 04:20:09;;;;;;;93.35;49.90;;;10.10;86.60;;;;;;4950105;28;112734;-51
2024/03/12 04:22:35;;;;;;;96.03;51.22;;;10.10;86.40;;;;;;4949165;28;114460;-53
2024/03/12 04:25:02;;;;;;;98.85;49.95;;;10.10;86.40;;;;;;4947791;28;114002;-52
2024/03/12 04:27:28;;;;;;;86.13;46.90;;;10.10;86.40;;;;;;4949908;28;113034;-52
2024/03/12 04:29:53;;;;;;;91.78;47.97;;;10.10;86.40;;;;;;4950420;28;112878;-51
2024/03/12 04:32:20;;;;;;;88.18;48.08;;;10.10;86.10;;;;;;4948923;28;114437;-52
2024/03/12 04:34:46;;;;;;;90.63;48.85;;;10.10;86.10;;;;;;4949213;28;112764;-51
2024/03/12 04:37:12;;;;;;;85.63;47.63;;;10.10;86.20;;;;;;4950141;28;112819;-52
2024/03/12 04:39:38;;;;;;;77.30;46.75;;;10.00;86.30;;;;;;4947886;28;113409;-51
2024/03/12 04:42:05;;;;;;;81.20;45.83;;;10.00;86.50;;;;;;4947839;28;113310;-54
2024/03/12 04:44:34;;;;;;;86.43;47.60;;;10.00;86.20;;;;;;4947400;28;113716;-52
2024/03/12 04:47:00;;;;;;;93.22;48.58;;;9.90;86.40;;;;;;4949917;28;112601;-52
2024/03/12 04:49:26;;;;;;;76.28;46.85;;;9.80;86.50;;;;;;4949825;28;112818;-51
2024/03/12 04:51:53;;;;;;;84.07;49.42;;;9.80;87.00;;;;;;4948727;28;114938;-51
2024/03/12 04:54:19;;;;;;;82.97;49.50;;;9.80;87.00;;;;;;4948634;28;113723;-51
2024/03/12 04:56:46;;;;;;;90.95;52.38;;;9.80;87.00;;;;;;4949823;28;112918;-51
2024/03/12 04:59:14;;;;;;;106.60;52.92;;;9.80;86.90;;;;;;4949590;28;112678;-52
2024/03/12 05:01:45;;;;;;;84.47;49.33;;;9.70;87.20;;;;;;4948184;28;113964;-51
2024/03/12 05:04:17;;;;;;;92.82;52.38;;;9.70;87.60;;;;;;4936121;28;112765;-51
2024/03/12 05:06:43;;;;;;;111.53;54.63;;;9.80;87.40;;;;;;4949929;28;112905;-51
2024/03/12 05:09:09;;;;;;;105.57;55.33;;;9.80;87.50;;;;;;4948232;28;112722;-51
2024/03/12 05:11:36;;;;;;;106.03;54.50;;;9.90;87.50;;;;;;4948703;28;113212;-53
2024/03/12 05:14:01;;;;;;;115.88;52.53;;;9.80;87.50;;;;;;4948388;28;114928;-51
2024/03/12 05:16:28;;;;;;;113.25;53.03;;;9.90;87.30;;;;;;4949243;28;112557;-51
2024/03/12 05:18:54;;;;;;;108.50;53.80;;;9.80;87.50;;;;;;4949294;28;112686;-51
2024/03/12 05:21:21;;;;;;;113.45;54.60;;;9.80;87.70;;;;;;4948196;28;113255;-54
2024/03/12 05:23:48;;;;;;;108.30;54.45;;;9.80;87.60;;;;;;4948258;28;112987;-51
2024/03/12 05:26:17;;;;;;;111.53;53.10;;;9.90;87.60;;;;;;4949414;28;112552;-51
2024/03/12 05:28:43;;;;;;;111.10;54.60;;;9.80;87.70;;;;;;4949249;28;112630;-53
2024/03/12 05:31:09;;;;;;;115.55;52.45;;;9.80;87.80;;;;;;4948093;28;113337;-53
2024/03/12 05:33:38;;;;;;;122.57;50.22;;;9.80;87.90;;;;;;4948511;28;113060;-52
2024/03/12 05:36:11;;;;;;;140.40;50.25;;;9.70;88.20;;;;;;4949065;28;112659;-51
2024/03/12 05:38:44;;;;;;;175.23;44.95;;;9.70;88.60;;;;;;4948542;28;112855;-53
2024/03/12 05:49:15;;;;;;;162.32;39.55;;;9.80;88.50;;;;;;4949314;28;112500;-52
2024/03/12 05:51:41;;;;;;;134.90;39.50;;;9.60;88.20;;;;;;4934255;28;113336;-51
2024/03/12 05:54:07;;;;;;;109.13;42.60;;;9.50;88.70;;;;;;4947652;28;114203;-51
2024/03/12 05:56:33;;;;;;;73.53;38.38;;;9.50;88.60;;;;;;4948854;28;112861;-55
2024/03/12 05:58:59;;;;;;;69.80;36.97;;;9.60;88.50;;;;;;4948909;28;112953;-49
2024/03/12 06:01:25;;;;;;;107.50;40.20;;;9.60;88.30;;;;;;4947692;28;113148;-51
2024/03/12 06:03:51;;;;;;;140.25;46.38;;;9.50;88.50;;;;;;4934048;28;113042;-53
2024/03/12 06:06:20;;;;;;;153.45;46.92;;;9.50;88.70;;;;;;4949253;28;112641;-50
2024/03/12 06:08:45;;;;;;;155.38;47.65;;;9.50;88.80;;;;;;4948584;28;115785;-51
2024/03/12 06:11:15;;;;;;;137.50;43.80;;;9.50;89.30;;;;;;4947734;28;113315;-52
2024/03/12 06:13:42;;;;;;;161.43;47.15;;;9.50;88.80;;;;;;4947320;28;113872;-54
2024/03/12 06:16:08;;;;;;;226.35;48.30;;;9.60;88.90;;;;;;4948756;28;112550;-53
2024/03/12 06:18:35;;;;;;;110.60;44.35;;;9.40;89.00;;;;;;4948777;28;112673;-52
2024/03/12 06:21:01;;;;;;;79.05;42.38;;;9.50;89.00;;;;;;4946983;28;113137;-52
2024/03/12 06:23:26;;;;;;;116.65;44.80;;;9.60;88.80;;;;;;4947388;28;113934;-52
2024/03/12 06:25:53;;;;;;;112.85;47.63;;;9.80;88.70;;;;;;4946890;28;112523;-52
2024/03/12 06:28:21;;;;;;;283.17;47.80;;;9.80;88.50;;;;;;4948204;28;113459;-52
2024/03/12 06:30:48;;;;;;;89.57;44.58;;;9.80;88.40;;;;;;4947063;28;113425;-55
2024/03/12 06:33:17;;;;;;;145.93;42.60;;;9.80;88.30;;;;;;4947493;28;112762;-54
2024/03/12 06:35:45;;;;;;;149.70;45.92;;;9.70;88.00;;;;;;4946662;28;112676;-53
2024/03/12 06:38:11;;;;;;;98.25;43.88;;;9.60;88.60;;;;;;4948025;28;113041;-52
2024/03/12 06:40:37;;;;;;;78.15;43.65;;;9.60;88.80;;;;;;4945610;28;116229;-52
2024/03/12 06:43:03;;;;;;;112.85;42.90;;;9.70;88.90;;;;;;4947176;28;112748;-52
2024/03/12 06:45:29;;;;;;;99.03;43.22;;;9.80;88.20;;;;;;4948248;28;113054;-52
2024/03/12 06:48:00;;;;;;;102.40;43.53;;;9.80;88.00;;;;;;4948270;28;112850;-52
2024/03/12 06:50:26;;;;;;;96.63;40.67;;;9.90;87.60;;;;;;4946981;28;114435;-52
2024/03/12 06:52:53;;;;;;;85.65;42.63;;;9.90;87.50;;;;;;4946847;28;113779;-52
2024/03/12 06:55:23;;;;;;;82.80;41.22;;;9.80;87.50;;;;;;4948196;28;112759;-52
2024/03/12 06:57:59;;;;;;;81.70;43.30;;;9.90;87.40;;;;;;4934246;28;112745;-52
2024/03/12 07:00:40;;;;;;;86.05;41.38;;;9.80;87.60;;;;;;4928550;28;113432;-51
2024/03/12 07:03:09;;;;;;;71.53;41.45;;;9.90;87.80;;;;;;4929330;28;112933;-52
2024/03/12 07:05:37;;;;;;;69.93;40.05;;;10.00;87.50;;;;;;4943045;28;112555;-51
2024/03/12 07:08:06;;;;;;;68.90;39.42;;;10.00;87.50;;;;;;4943909;28;112771;-52
2024/03/12 07:10:33;;;;;;;74.22;40.38;;;10.00;87.50;;;;;;4941901;28;113768;-54
2024/03/12 07:13:01;;;;;;;75.68;41.60;;;10.00;87.40;;;;;;4927292;28;113823;-52
2024/03/12 07:15:29;;;;;;;82.57;39.10;;;10.00;87.50;;;;;;4937532;28;113334;-52
2024/03/12 07:17:54;;;;;;;72.43;40.10;;;10.10;87.20;;;;;;4940095;28;113197;-53
2024/03/12 07:20:21;;;;;;;63.67;39.45;;;10.00;87.40;;;;;;4934156;28;114819;-52
2024/03/12 07:22:48;;;;;;;69.72;39.63;;;10.20;87.40;;;;;;4927232;28;112921;-52
2024/03/12 07:25:15;;;;;;;79.28;40.05;;;10.30;86.90;;;;;;4928241;28;112635;-52
2024/03/12 07:27:41;;;;;;;68.85;39.90;;;10.30;86.30;;;;;;4932105;28;112855;-52
2024/03/12 07:30:12;;;;;;;74.15;38.30;;;10.30;86.60;;;;;;4944461;28;113473;-52
2024/03/12 07:32:39;;;;;;;78.72;42.28;;;10.30;86.70;;;;;;4932132;28;112812;-52
2024/03/12 07:35:05;;;;;;;75.65;41.53;;;10.40;86.30;;;;;;4931548;28;112682;-52
2024/03/12 07:37:38;;;;;;;75.72;41.97;;;10.30;86.90;;;;;;4930643;28;112649;-52
2024/03/12 07:40:04;;;;;;;76.07;40.58;;;10.50;86.80;;;;;;4930133;28;114646;-53
2024/03/12 07:42:30;;;;;;;73.95;41.28;;;10.50;86.60;;;;;;4930160;28;112920;-51
2024/03/12 07:44:57;;;;;;;81.53;41.83;;;10.60;86.30;;;;;;4930112;28;112700;-52
2024/03/12 07:47:24;;;;;;;91.40;41.67;;;10.70;86.30;;;;;;4930954;28;112860;-52
2024/03/12 07:49:51;;;;;;;83.43;42.40;;;10.60;86.50;;;;;;4929900;28;114464;-52
2024/03/12 07:52:16;;;;;;;79.05;43.55;;;10.60;86.50;;;;;;4930185;28;112688;-53
2024/03/12 07:54:42;;;;;;;85.25;43.75;;;10.60;86.40;;;;;;4930964;28;112701;-51
2024/03/12 07:57:08;;;;;;;75.93;45.28;;;10.60;86.30;;;;;;4930943;28;113157;-52
2024/03/12 07:59:34;;;;;;;72.63;44.83;;;10.70;86.70;;;;;;4930028;28;113191;-52
2024/03/12 08:02:03;;;;;;;66.70;42.28;;;10.80;86.10;;;;;;4932727;28;112614;-52
2024/03/12 08:04:30;;;;;;;67.32;43.45;;;10.80;85.50;;;;;;4950643;28;112848;-52
2024/03/12 08:06:56;;;;;;;68.82;44.22;;;10.90;85.50;;;;;;4951021;28;112729;-52
2024/03/12 08:09:23;;;;;;;63.70;41.97;;;10.90;85.60;;;;;;4949403;28;113189;-52
2024/03/12 08:11:49;;;;;;;57.72;42.17;;;11.00;85.60;;;;;;4949531;28;112770;-52
2024/03/12 08:14:16;;;;;;;58.92;41.85;;;11.00;84.80;;;;;;4950290;28;112752;-53
2024/03/12 08:16:42;;;;;;;56.80;40.88;;;11.10;85.00;;;;;;4950325;28;112875;-53
2024/03/12 08:19:11;;;;;;;55.97;39.75;;;11.10;84.60;;;;;;4949176;28;113740;-52
2024/03/12 08:21:38;;;;;;;55.13;40.20;;;11.10;84.50;;;;;;4949231;28;112755;-53
2024/03/12 08:24:04;;;;;;;57.95;41.63;;;11.30;83.90;;;;;;4948857;28;112586;-52
2024/03/12 08:26:31;;;;;;;58.80;43.15;;;10.90;84.00;;;;;;4950173;28;112706;-52
2024/03/12 08:28:58;;;;;;;60.30;43.67;;;10.90;84.90;;;;;;4948755;28;113144;-52
2024/03/12 08:31:24;;;;;;;56.90;41.70;;;10.90;85.00;;;;;;4949121;28;113092;-52
2024/03/12 08:33:50;;;;;;;52.33;41.28;;;11.10;84.70;;;;;;4950286;28;112522;-52
2024/03/12 08:36:16;;;;;;;52.03;41.17;;;11.10;83.80;;;;;;4950010;28;112766;-52
2024/03/12 08:38:42;;;;;;;54.42;41.85;;;11.10;84.20;;;;;;4948722;28;114155;-52
2024/03/12 08:41:09;;;;;;;51.83;41.08;;;11.10;84.10;;;;;;4948792;28;112875;-52
2024/03/12 08:43:36;;;;;;;54.30;43.33;;;11.00;84.30;;;;;;4949745;28;112695;-52
2024/03/12 08:46:03;;;;;;;54.90;40.78;;;11.00;84.50;;;;;;4949722;28;112692;-53
2024/03/12 08:48:29;;;;;;;53.97;41.38;;;11.00;84.20;;;;;;4949072;28;113276;-52
2024/03/12 08:50:56;;;;;;;68.85;43.47;;;11.00;84.00;;;;;;4949015;28;112729;-55
2024/03/12 08:53:22;;;;;;;60.08;43.97;;;10.90;83.70;;;;;;4949724;28;112612;-52
2024/03/12 08:55:47;;;;;;;55.35;42.83;;;10.90;84.20;;;;;;4949605;28;112848;-52
2024/03/12 08:58:13;;;;;;;53.53;43.40;;;10.90;83.80;;;;;;4947190;28;113684;-52
2024/03/12 09:00:41;;;;;;;51.05;39.92;;;11.60;82.30;;;;;;4948905;28;112844;-52
2024/03/12 09:03:07;;;;;;;50.88;39.60;;;12.00;79.90;;;;;;4937726;28;112757;-54
2024/03/12 09:05:34;;;;;;;52.47;40.90;;;12.70;78.90;;;;;;4947775;28;112717;-52
2024/03/12 09:08:03;;;;;;;52.53;41.17;;;12.10;79.40;;;;;;4949064;28;114340;-52
2024/03/12 09:10:30;;;;;;;49.60;41.13;;;12.10;79.80;;;;;;4948315;28;112577;-52
2024/03/12 09:12:56;;;;;;;42.03;35.60;;;12.70;78.80;;;;;;4949712;28;112470;-54
2024/03/12 09:15:22;;;;;;;42.88;37.10;;;13.30;76.90;;;;;;4949362;28;112837;-52
2024/03/12 09:17:48;;;;;;;38.75;34.35;;;14.30;74.50;;;;;;4948454;28;113748;-52
2024/03/12 09:20:15;;;;;;;39.05;32.50;;;14.90;71.70;;;;;;4948477;28;112908;-52
2024/03/12 09:22:44;;;;;;;38.38;32.95;;;15.50;70.50;;;;;;4949752;28;113264;-52
2024/03/12 09:25:10;;;;;;;38.00;33.13;;;15.40;69.80;;;;;;4949375;28;113100;-54
2024/03/12 09:27:37;;;;;;;39.50;33.75;;;15.90;69.20;;;;;;4948127;28;114492;-52
2024/03/12 09:30:05;;;;;;;40.05;34.15;;;16.00;67.80;;;;;;4948263;28;113044;-54
2024/03/12 09:32:31;;;;;;;35.53;31.70;;;16.00;67.20;;;;;;4949098;28;112839;-52
2024/03/12 09:34:57;;;;;;;36.05;32.05;;;16.30;66.70;;;;;;4949357;28;112831;-52
2024/03/12 09:37:22;;;;;;;34.60;30.60;;;16.30;67.60;;;;;;4946528;28;116665;-52
2024/03/12 09:39:52;;;;;;;36.30;31.83;;;16.80;65.90;;;;;;4946231;28;114498;-51
2024/03/12 09:42:20;;;;;;;34.72;31.00;;;16.40;66.90;;;;;;4948846;28;112514;-52
2024/03/12 09:44:47;;;;;;;37.13;31.75;;;16.80;66.00;;;;;;4949188;28;113382;-51
2024/03/12 09:47:13;;;;;;;34.20;30.55;;;17.00;65.80;;;;;;4946699;28;113474;-52
2024/03/12 09:49:43;;;;;;;32.67;29.27;;;17.40;64.10;;;;;;4948123;28;113231;-52
2024/03/12 09:52:11;;;;;;;32.63;27.50;;;17.50;63.30;;;;;;4948892;28;112517;-54
2024/03/12 09:54:38;;;;;;;30.48;26.90;;;16.80;64.60;;;;;;4948022;28;112790;-51
2024/03/12 09:57:10;;;;;;;31.73;26.95;;;16.40;65.70;;;;;;4947956;28;114484;-53
2024/03/12 09:59:36;;;;;;;31.23;27.10;;;17.00;64.60;;;;;;4947689;28;113727;-51
2024/03/12 10:02:03;;;;;;;33.28;26.63;;;16.90;65.00;;;;;;4945817;28;112601;-51
2024/03/12 10:04:28;;;;;;;32.65;29.00;;;16.70;65.60;;;;;;4938621;28;112756;-50
2024/03/12 10:06:55;;;;;;;33.40;29.98;;;16.40;67.00;;;;;;4948127;28;113270;-51
2024/03/12 10:09:27;;;;;;;30.92;27.77;;;16.90;66.10;;;;;;4947575;28;113783;-52
2024/03/12 10:12:01;;;;;;;;;;;16.30;67.30;;;;;;4949212;28;112768;-52
2024/03/12 10:14:28;;;;;;;30.77;27.63;;;15.70;69.20;;;;;;4951081;28;112982;-54
2024/03/12 10:17:13;;;;;;;30.33;27.08;;;16.00;68.60;;;;;;4947573;28;113255;-52
2024/03/12 10:19:43;;;;;;;29.88;26.70;;;16.10;67.80;;;;;;4947925;28;112827;-54
2024/03/12 10:22:09;;;;;;;27.75;24.58;;;16.40;67.40;;;;;;4946829;28;112883;-54
2024/03/12 10:24:36;;;;;;;28.38;25.58;;;16.60;66.00;;;;;;4948756;28;112737;-51
2024/03/12 10:27:06;;;;;;;26.40;23.65;;;17.10;63.90;;;;;;4947341;28;114643;-52
2024/03/12 10:29:35;;;;;;;26.73;24.17;;;18.20;62.10;;;;;;4947502;28;112775;-53
2024/03/12 10:32:19;;;;;;;28.67;25.85;;;18.30;60.70;;;;;;4948389;28;112632;-51
2024/03/12 10:34:46;;;;;;;23.05;20.67;;;18.50;61.00;;;;;;4935225;28;112566;-54
2024/03/12 10:37:35;;;;;;;22.00;19.77;;;18.00;60.40;;;;;;4947303;28;113194;-53
2024/03/12 10:40:15;;;;;;;19.95;18.05;;;18.40;58.30;;;;;;4947369;28;112837;-51
2024/03/12 10:42:53;;;;;;;23.35;20.88;;;19.60;54.70;;;;;;4948275;28;112544;-51
2024/03/12 10:45:21;;;;;;;22.98;20.65;;;20.30;54.30;;;;;;4948531;28;112831;-52
2024/03/12 10:47:48;;;;;;;19.95;18.00;;;20.00;55.10;;;;;;4946805;28;115172;-52
2024/03/12 10:50:16;;;;;;;22.58;20.27;;;19.50;54.60;;;;;;4947224;28;112739;-52
2024/03/12 10:52:45;;;;;;;22.48;20.30;;;19.90;53.70;;;;;;4947778;28;112868;-52
2024/03/12 10:55:23;;;;;;;21.75;19.55;;;19.90;54.40;;;;;;4948003;28;112748;-53
2024/03/12 10:57:54;;;;;;;23.88;21.67;;;18.90;56.90;;;;;;4946940;28;114408;-54
2024/03/12 11:00:21;;;;;;;23.35;21.00;;;19.30;56.40;;;;;;4945554;28;113826;-51
2024/03/12 11:02:50;;;;;;;21.98;19.98;;;20.50;54.30;;;;;;4938988;28;112938;-52
2024/03/12 11:05:19;;;;;;;24.00;21.30;;;20.40;52.20;;;;;;4944143;28;112746;-52
2024/03/12 11:07:45;;;;;;;25.42;22.83;;;20.30;52.90;;;;;;4950855;28;113152;-53
2024/03/12 11:10:12;;;;;;;25.48;22.83;;;19.70;55.00;;;;;;4950308;28;112614;-53
2024/03/12 11:12:38;;;;;;;25.80;22.73;;;19.10;56.60;;;;;;4951463;28;112998;-51
2024/03/12 11:15:08;;;;;;;24.67;22.10;;;18.30;58.20;;;;;;4951476;28;112729;-54
2024/03/12 11:17:35;;;;;;;26.10;23.45;;;17.40;60.50;;;;;;4950028;28;114532;-51
2024/03/12 11:20:01;;;;;;;26.85;24.02;;;17.10;61.30;;;;;;4950176;28;112877;-52
2024/03/12 11:22:27;;;;;;;26.27;23.48;;;17.00;61.40;;;;;;4950990;28;112631;-54
2024/03/12 11:24:53;;;;;;;25.50;22.80;;;17.40;60.90;;;;;;4951244;28;112680;-51
2024/03/12 11:27:20;;;;;;;22.80;20.35;;;18.40;59.40;;;;;;4949950;28;113293;-51
2024/03/12 11:30:03;;;;;;;22.02;19.83;;;19.40;55.60;;;;;;4950133;28;113392;-52
2024/03/12 11:32:38;;;;;;;24.00;20.50;;;19.50;55.20;;;;;;4951040;28;112667;-51
2024/03/12 11:35:34;;;;;;;24.33;20.73;;;18.80;56.70;;;;;;4951230;28;112633;-53
2024/03/12 11:38:05;;;;;;;23.55;20.05;;;17.80;59.90;;;;;;4933894;28;114430;-51
2024/03/12 11:40:37;;;;;;;19.77;17.73;;;17.50;59.00;;;;;;4949841;28;113025;-53
2024/03/12 11:43:04;;;;;;;20.95;18.42;;;17.20;60.40;;;;;;4950975;28;113012;-51
2024/03/12 11:45:36;;;;;;;18.77;16.65;;;17.40;59.80;;;;;;4950994;28;112770;-53
2024/03/12 11:48:06;;;;;;;18.93;16.90;;;16.80;61.00;;;;;;4948361;28;114596;-51
2024/03/12 11:50:34;;;;;;;19.08;17.13;;;17.30;59.90;;;;;;4949584;28;114213;-51
2024/03/12 11:53:17;;;;;;;20.33;17.48;;;18.60;56.70;;;;;;4950695;28;112835;-52
2024/03/12 11:55:52;;;;;;;18.85;16.95;;;18.70;56.30;;;;;;4949784;28;112739;-51
2024/03/12 11:58:20;;;;;;;20.17;17.98;;;20.50;52.10;;;;;;4949294;28;114415;-52
2024/03/12 12:00:50;;;;;;;21.17;18.95;;;20.50;51.70;;;;;;4949748;28;113787;-51
2024/03/12 12:03:16;;;;;;;19.73;17.63;;;20.80;50.90;;;;;;4937767;28;112809;-52
2024/03/12 12:05:43;;;;;;;19.83;17.75;;;23.80;45.80;;;;;;4949635;28;113194;-52
2024/03/12 12:08:10;;;;;;;20.02;18.05;;;24.80;42.50;;;;;;4950060;28;114530;-52
2024/03/12 12:10:36;;;;;;;20.17;18.20;;;24.70;41.50;;;;;;4949347;28;113037;-52
2024/03/12 12:13:15;;;;;;;21.00;19.05;;;24.60;42.10;;;;;;4950572;28;112568;-54
2024/03/12 12:15:55;;;;;;;19.52;17.70;;;24.00;42.90;;;;;;4950446;28;112680;-52
2024/03/12 12:18:21;;;;;;;21.35;19.15;;;22.60;45.10;;;;;;4948666;28;114483;-53
2024/03/12 12:20:47;;;;;;;20.83;18.73;;;21.30;47.70;;;;;;4949145;28;113122;-51
2024/03/12 12:23:13;;;;;;;22.08;19.85;;;19.70;51.40;;;;;;4950406;28;112616;-52
2024/03/12 12:25:38;;;;;;;20.75;18.70;;;19.80;52.50;;;;;;4950206;28;112831;-54
2024/03/12 12:28:08;;;;;;;20.17;18.25;;;21.90;48.60;;;;;;4949139;28;114911;-53
2024/03/12 12:30:35;;;;;;;18.15;16.23;;;21.70;48.50;;;;;;4949075;28;113232;-53